Time;durP1;ratioP1;P1;durP2;ratioP2;P2;SDS_P1;SDS_P2;PMS_P1;PMS_P2;Temp;Humidity;BMP_temperature;BMP_pressure;BME280_temperature;BME280_humidity;BME280_pressure;Samples;Min_cycle;Max_cycle;Signal;HPM_P1;HPM_P2
2021/08/28 00:00:45;;;;;;;9.77;3.45;;;15.90;99.90;;;;;;6181647;23;20012;-83
2021/08/28 00:03:11;;;;;;;10.30;3.40;;;15.90;99.90;;;;;;6182583;23;20332;-83
2021/08/28 00:05:37;;;;;;;11.25;3.92;;;15.90;99.90;;;;;;6180815;23;20001;-83
2021/08/28 00:08:03;;;;;;;12.07;3.63;;;15.90;99.90;;;;;;6184181;23;20001;-83
2021/08/28 00:10:28;;;;;;;10.43;4.32;;;15.90;99.90;;;;;;6183391;23;20317;-83
2021/08/28 00:12:54;;;;;;;15.60;4.70;;;15.90;99.90;;;;;;6184541;23;20020;-83
2021/08/28 00:15:20;;;;;;;10.40;4.25;;;15.90;99.90;;;;;;6184202;23;20009;-83
2021/08/28 00:17:46;;;;;;;9.10;3.53;;;15.90;99.90;;;;;;6182985;23;20059;-83
2021/08/28 00:20:12;;;;;;;9.40;3.70;;;15.90;99.90;;;;;;6182020;23;20428;-84
2021/08/28 00:22:38;;;;;;;9.88;3.90;;;15.90;99.90;;;;;;6184697;23;20008;-83
2021/08/28 00:25:05;;;;;;;11.30;4.40;;;15.90;99.90;;;;;;6182251;23;20005;-83
2021/08/28 00:27:31;;;;;;;13.85;5.05;;;15.90;99.90;;;;;;6183107;23;20008;-82
2021/08/28 00:29:56;;;;;;;10.43;4.90;;;16.00;99.90;;;;;;6181806;23;20006;-83
2021/08/28 00:32:22;;;;;;;12.73;5.25;;;16.00;99.90;;;;;;6182499;23;20001;-83
2021/08/28 00:34:47;;;;;;;12.82;4.65;;;16.00;99.90;;;;;;6184335;23;20036;-83
2021/08/28 00:37:13;;;;;;;12.43;5.65;;;16.00;99.90;;;;;;6182748;23;20009;-83
2021/08/28 00:39:39;;;;;;;14.52;5.78;;;16.00;99.90;;;;;;6182021;23;20016;-83
2021/08/28 00:42:04;;;;;;;12.23;5.70;;;16.00;99.90;;;;;;6182129;23;20009;-83
2021/08/28 00:44:30;;;;;;;15.63;7.55;;;16.00;99.90;;;;;;6182553;23;20008;-83
2021/08/28 00:46:56;;;;;;;21.40;8.75;;;16.00;99.90;;;;;;6184173;23;20001;-83
2021/08/28 00:49:23;;;;;;;19.73;9.93;;;16.00;99.90;;;;;;6181892;23;20085;-83
2021/08/28 00:51:48;;;;;;;15.25;9.27;;;16.00;99.90;;;;;;6183932;23;20385;-82
2021/08/28 00:54:14;;;;;;;23.05;10.18;;;16.00;99.90;;;;;;6182125;23;20005;-83
2021/08/28 00:56:40;;;;;;;19.25;9.68;;;16.00;99.90;;;;;;6181914;23;20044;-83
2021/08/28 00:59:06;;;;;;;19.98;10.13;;;16.00;99.90;;;;;;6183649;23;20066;-83
2021/08/28 01:01:36;;;;;;;19.80;9.98;;;16.00;99.90;;;;;;6182188;23;20063;-83
2021/08/28 01:04:03;;;;;;;19.45;9.80;;;16.00;99.90;;;;;;6182443;23;20024;-83
2021/08/28 01:06:46;;;;;;;17.58;9.48;;;16.00;99.90;;;;;;6184028;23;20005;-83
2021/08/28 01:09:21;;;;;;;16.67;9.13;;;16.00;99.90;;;;;;6183286;23;20067;-83
2021/08/28 01:11:57;;;;;;;14.63;8.90;;;16.00;99.90;;;;;;6183487;23;20499;-83
2021/08/28 01:14:26;;;;;;;15.95;8.60;;;16.00;99.90;;;;;;6183976;23;20024;-82
2021/08/28 01:16:59;;;;;;;20.35;12.05;;;16.00;99.90;;;;;;6182228;23;20013;-83
2021/08/28 01:19:31;;;;;;;28.88;16.65;;;16.00;99.90;;;;;;6183158;23;20028;-83
2021/08/28 01:21:57;;;;;;;27.13;14.30;;;16.00;99.90;;;;;;6182073;23;20432;-83
2021/08/28 01:24:23;;;;;;;26.25;13.57;;;16.00;99.90;;;;;;6182061;23;20032;-83
2021/08/28 01:27:28;;;;;;;25.90;13.93;;;15.90;99.90;;;;;;6181852;23;20313;-85
2021/08/28 01:29:55;;;;;;;26.67;16.85;;;16.00;99.90;;;;;;6183013;23;20336;-86
2021/08/28 01:32:22;;;;;;;26.08;16.50;;;16.00;99.90;;;;;;6182268;23;20443;-86
2021/08/28 01:34:48;;;;;;;25.17;15.65;;;16.00;99.90;;;;;;6181822;23;20005;-86
2021/08/28 01:37:17;;;;;;;32.60;19.73;;;15.90;99.90;;;;;;6181945;23;20040;-85
2021/08/28 01:39:44;;;;;;;37.08;20.27;;;16.00;99.90;;;;;;6181358;23;20001;-85
2021/08/28 01:42:12;;;;;;;30.00;18.92;;;16.00;99.90;;;;;;6183302;23;20008;-86
2021/08/28 01:44:38;;;;;;;25.88;16.77;;;16.00;99.90;;;;;;6181719;23;20448;-85
2021/08/28 01:47:07;;;;;;;27.35;18.23;;;16.00;99.90;;;;;;6183666;23;20092;-85
2021/08/28 01:49:33;;;;;;;;;;;16.00;99.90;;;;;;6181795;23;20495;-86
2021/08/28 01:51:58;;;;;;;21.65;12.80;;;16.00;99.90;;;;;;6182877;23;19908;-84
2021/08/28 01:54:24;;;;;;;23.20;12.98;;;16.00;99.90;;;;;;6192992;23;20049;-86
2021/08/28 01:56:50;;;;;;;23.05;13.35;;;16.00;99.90;;;;;;6192729;23;20067;-85
2021/08/28 01:59:16;;;;;;;19.95;12.52;;;16.00;99.90;;;;;;6194696;23;20065;-87
2021/08/28 02:01:41;;;;;;;21.75;12.20;;;15.90;99.90;;;;;;6193648;23;20012;-86
2021/08/28 02:04:07;;;;;;;19.08;11.82;;;15.90;99.90;;;;;;6194647;23;20013;-85
2021/08/28 02:06:36;;;;;;;21.70;12.93;;;15.90;99.90;;;;;;6193914;23;20428;-85
2021/08/28 02:09:09;;;;;;;21.67;13.55;;;15.80;99.90;;;;;;6193960;23;20001;-86
2021/08/28 02:11:56;;;;;;;28.35;16.35;;;15.80;99.90;;;;;;6193948;23;20425;-84
2021/08/28 02:14:29;;;;;;;24.90;14.10;;;15.80;99.90;;;;;;6192169;23;20008;-84
2021/08/28 02:16:55;;;;;;;24.17;15.32;;;15.80;99.90;;;;;;6192669;23;20013;-84
2021/08/28 02:19:28;;;;;;;21.67;13.82;;;15.80;99.90;;;;;;6194169;23;20076;-84
2021/08/28 02:21:58;;;;;;;23.65;14.95;;;15.80;99.90;;;;;;6191963;23;20052;-84
2021/08/28 02:24:29;;;;;;;21.70;15.32;;;15.70;99.90;;;;;;6192245;23;20036;-87
2021/08/28 02:27:21;;;;;;;23.05;16.02;;;15.70;99.90;;;;;;6192018;23;20060;-84
2021/08/28 02:29:54;;;;;;;20.95;14.05;;;15.70;99.90;;;;;;6192302;23;20096;-84
2021/08/28 02:32:22;;;;;;;23.73;16.27;;;15.70;99.90;;;;;;6191305;23;20399;-86
2021/08/28 02:34:50;;;;;;;22.27;14.05;;;15.70;99.90;;;;;;6191593;23;20009;-84
2021/08/28 02:37:17;;;;;;;24.17;13.48;;;15.70;99.90;;;;;;6190545;23;20015;-85
2021/08/28 02:39:45;;;;;;;21.27;12.73;;;15.70;99.90;;;;;;6190090;23;20009;-85
2021/08/28 02:42:12;;;;;;;26.63;14.68;;;15.70;99.90;;;;;;6188695;23;20028;-86
2021/08/28 02:44:41;;;;;;;29.00;14.35;;;15.70;99.90;;;;;;6188697;23;20170;-87
2021/08/28 02:47:08;;;;;;;26.15;15.75;;;15.60;99.90;;;;;;6191243;23;20064;-85
2021/08/28 02:49:35;;;;;;;26.08;15.57;;;15.70;99.90;;;;;;6190986;23;20031;-84
2021/08/28 02:52:02;;;;;;;26.48;15.75;;;15.60;99.90;;;;;;6190637;23;20446;-86
2021/08/28 02:54:29;;;;;;;24.80;15.32;;;15.60;99.90;;;;;;6191381;23;20001;-84
2021/08/28 02:56:55;;;;;;;29.20;16.58;;;15.60;99.90;;;;;;6191329;23;20447;-84
2021/08/28 02:59:24;;;;;;;30.67;17.13;;;15.60;99.90;;;;;;6190243;23;20016;-85
2021/08/28 03:01:50;;;;;;;37.53;21.08;;;15.70;99.90;;;;;;6192227;23;20005;-84
2021/08/28 03:04:23;;;;;;;34.25;19.33;;;15.60;99.90;;;;;;6191032;23;20009;-84
2021/08/28 03:06:50;;;;;;;34.65;19.20;;;15.70;99.90;;;;;;6190721;23;20002;-84
2021/08/28 03:09:16;;;;;;;32.15;17.60;;;15.60;99.90;;;;;;6191145;23;20005;-84
2021/08/28 03:11:46;;;;;;;28.00;15.98;;;15.60;99.90;;;;;;6191279;23;20005;-84
2021/08/28 03:14:12;;;;;;;;;;;15.70;99.90;;;;;;6191915;23;20428;-85
2021/08/28 03:16:42;;;;;;;30.33;18.08;;;15.60;99.90;;;;;;6191252;23;19995;-84
2021/08/28 03:19:09;;;;;;;32.63;19.08;;;15.60;99.90;;;;;;6191250;23;20037;-84
2021/08/28 03:21:37;;;;;;;31.70;17.40;;;15.60;99.90;;;;;;6191301;23;20005;-85
2021/08/28 03:24:03;;;;;;;29.90;16.23;;;15.60;99.90;;;;;;6190921;23;20009;-85
2021/08/28 03:26:30;;;;;;;29.50;17.42;;;15.60;99.90;;;;;;6191518;23;20071;-84
2021/08/28 03:28:57;;;;;;;32.58;18.75;;;15.60;99.90;;;;;;6190972;23;20008;-85
2021/08/28 03:31:27;;;;;;;28.88;16.95;;;15.60;99.90;;;;;;6189325;23;20071;-87
2021/08/28 03:33:58;;;;;;;27.20;17.05;;;15.70;99.90;;;;;;6183267;23;20116;-87
2021/08/28 03:36:24;;;;;;;30.08;18.50;;;15.70;99.90;;;;;;6205588;23;20009;-86
2021/08/28 03:38:53;;;;;;;30.17;17.90;;;15.70;99.90;;;;;;6180882;23;20009;-86
2021/08/28 03:41:19;;;;;;;27.83;16.85;;;15.70;99.90;;;;;;6182298;23;20053;-87
2021/08/28 03:43:47;;;;;;;31.88;18.90;;;15.70;99.90;;;;;;6184894;23;19998;-86
2021/08/28 03:46:16;;;;;;;39.28;20.58;;;15.70;99.90;;;;;;6184767;23;20001;-87
2021/08/28 03:48:42;;;;;;;36.00;21.70;;;15.70;99.90;;;;;;6183096;23;20001;-85
2021/08/28 03:51:07;;;;;;;39.70;21.55;;;15.70;99.90;;;;;;6182189;23;20107;-86
2021/08/28 03:53:33;;;;;;;40.72;22.00;;;15.70;99.90;;;;;;6184518;23;20009;-86
2021/08/28 03:55:59;;;;;;;36.70;21.48;;;15.70;99.90;;;;;;6181686;23;20020;-86
2021/08/28 03:58:26;;;;;;;43.95;22.75;;;15.70;99.90;;;;;;6185014;23;19994;-87
2021/08/28 04:00:52;;;;;;;43.83;23.25;;;15.70;99.90;;;;;;6182195;23;20367;-87
2021/08/28 04:03:18;;;;;;;37.67;22.90;;;15.70;99.90;;;;;;6182915;23;20005;-86
2021/08/28 04:05:44;;;;;;;39.75;23.30;;;15.70;99.90;;;;;;6182801;23;20009;-85
2021/08/28 04:08:10;;;;;;;41.45;25.95;;;15.80;99.90;;;;;;6183162;23;20028;-87
2021/08/28 04:10:36;;;;;;;49.13;26.23;;;15.70;99.90;;;;;;6181462;23;20559;-86
2021/08/28 04:13:02;;;;;;;41.75;25.73;;;15.70;99.90;;;;;;6182899;23;20001;-86
2021/08/28 04:15:27;;;;;;;38.15;26.27;;;15.80;99.90;;;;;;6182604;23;20003;-87
2021/08/28 04:17:55;;;;;;;39.05;25.48;;;15.70;99.90;;;;;;6183088;23;20024;-86
2021/08/28 04:20:20;;;;;;;39.75;26.60;;;15.80;99.90;;;;;;6181745;23;20005;-88
2021/08/28 04:22:46;;;;;;;37.28;26.63;;;15.80;99.90;;;;;;6182791;23;20095;-86
2021/08/28 04:25:12;;;;;;;37.50;26.90;;;15.80;99.90;;;;;;6182177;23;20009;-86
2021/08/28 04:27:38;;;;;;;40.72;25.08;;;15.80;99.90;;;;;;6187081;23;20009;-86
2021/08/28 04:30:06;;;;;;;41.25;26.95;;;15.80;99.90;;;;;;6189195;23;20001;-87
2021/08/28 04:32:32;;;;;;;38.63;25.75;;;15.70;99.90;;;;;;6189187;23;20013;-86
2021/08/28 04:34:57;;;;;;;40.33;26.35;;;15.70;99.90;;;;;;6186654;23;20005;-87
2021/08/28 04:37:23;;;;;;;37.63;23.00;;;15.80;99.90;;;;;;6184357;23;20016;-86
2021/08/28 04:39:49;;;;;;;31.90;19.95;;;15.80;99.90;;;;;;6183898;23;20005;-85
2021/08/28 04:42:15;;;;;;;28.15;18.83;;;15.80;99.90;;;;;;6181991;23;20005;-86
2021/08/28 04:44:40;;;;;;;27.35;15.00;;;15.80;99.90;;;;;;6182826;23;20093;-86
2021/08/28 04:47:06;;;;;;;24.40;14.18;;;15.70;99.90;;;;;;6183138;23;20365;-85
2021/08/28 04:49:31;;;;;;;21.00;15.18;;;15.70;99.90;;;;;;6183559;23;20001;-86
2021/08/28 04:51:58;;;;;;;14.40;10.00;;;15.70;99.90;;;;;;6185037;23;20005;-84
2021/08/28 04:54:24;;;;;;;13.38;8.57;;;15.70;99.90;;;;;;6187407;23;20027;-86
2021/08/28 04:56:50;;;;;;;15.80;10.73;;;15.70;99.90;;;;;;6183524;23;20013;-86
2021/08/28 04:59:15;;;;;;;13.45;9.43;;;15.70;99.90;;;;;;6182283;23;20009;-87
2021/08/28 05:01:41;;;;;;;15.65;10.60;;;15.70;99.90;;;;;;6183932;23;20318;-86
2021/08/28 05:04:07;;;;;;;19.13;11.10;;;15.70;99.90;;;;;;6182106;23;20005;-86
2021/08/28 05:06:33;;;;;;;17.17;11.63;;;15.70;99.90;;;;;;6182345;23;20008;-86
2021/08/28 05:08:59;;;;;;;16.70;11.20;;;15.60;99.90;;;;;;6183099;23;19997;-86
2021/08/28 05:11:24;;;;;;;17.15;10.77;;;15.70;99.90;;;;;;6183552;23;20041;-86
2021/08/28 05:13:50;;;;;;;16.45;9.55;;;15.70;99.90;;;;;;6183991;23;20084;-86
2021/08/28 05:16:16;;;;;;;13.98;9.20;;;15.70;99.90;;;;;;6183727;23;20028;-84
2021/08/28 05:18:41;;;;;;;15.05;8.00;;;15.70;99.90;;;;;;6182077;23;20029;-86
2021/08/28 05:21:07;;;;;;;11.27;6.95;;;15.70;99.90;;;;;;6182788;23;20005;-86
2021/08/28 05:23:32;;;;;;;14.18;7.93;;;15.70;99.90;;;;;;6182045;23;20005;-86
2021/08/28 05:25:58;;;;;;;11.55;7.20;;;15.70;99.90;;;;;;6183179;23;20084;-85
2021/08/28 05:28:24;;;;;;;10.88;8.05;;;15.70;99.90;;;;;;6182538;23;20085;-86
2021/08/28 05:30:49;;;;;;;11.63;7.40;;;15.70;99.90;;;;;;6181198;23;20005;-86
2021/08/28 05:33:16;;;;;;;12.20;7.82;;;15.70;99.90;;;;;;6183578;23;19993;-86
2021/08/28 05:35:42;;;;;;;10.80;6.47;;;15.70;99.90;;;;;;6181695;23;20024;-87
2021/08/28 05:38:07;;;;;;;11.50;7.95;;;15.80;99.90;;;;;;6181818;23;20005;-87
2021/08/28 05:40:33;;;;;;;10.95;7.30;;;15.70;99.90;;;;;;6180959;23;20009;-86
2021/08/28 05:42:59;;;;;;;13.30;8.13;;;15.70;99.90;;;;;;6181552;23;20005;-88
2021/08/28 05:45:24;;;;;;;16.83;8.18;;;15.70;99.90;;;;;;6183736;23;20001;-89
2021/08/28 05:47:50;;;;;;;13.30;7.80;;;15.70;99.90;;;;;;6181783;23;20347;-85
2021/08/28 05:50:16;;;;;;;12.02;7.32;;;15.70;99.90;;;;;;6180780;23;20005;-86
2021/08/28 05:52:42;;;;;;;13.02;7.40;;;15.70;99.90;;;;;;6181802;23;20009;-85
2021/08/28 05:55:15;;;;;;;12.55;8.13;;;15.70;99.90;;;;;;6182569;23;20032;-85
2021/08/28 05:57:42;;;;;;;12.85;7.10;;;15.70;99.90;;;;;;6182473;23;20010;-84
2021/08/28 06:00:08;;;;;;;15.68;8.18;;;15.80;99.90;;;;;;6180448;23;20339;-86
2021/08/28 06:02:38;;;;;;;11.85;7.30;;;15.80;99.90;;;;;;6181490;23;20031;-86
2021/08/28 06:05:09;;;;;;;17.05;9.77;;;15.80;99.90;;;;;;6182385;23;20029;-86
2021/08/28 06:07:36;;;;;;;17.63;8.90;;;15.80;99.90;;;;;;6181650;23;20001;-85
2021/08/28 06:10:03;;;;;;;14.43;8.30;;;15.80;99.90;;;;;;6179966;23;20001;-85
2021/08/28 06:12:29;;;;;;;15.23;7.88;;;15.80;99.90;;;;;;6181191;23;20005;-86
2021/08/28 06:14:54;;;;;;;18.77;8.13;;;15.90;99.90;;;;;;6181142;23;20396;-86
2021/08/28 06:17:20;;;;;;;11.63;7.40;;;15.90;99.90;;;;;;6180852;23;20067;-86
2021/08/28 06:19:46;;;;;;;15.57;7.90;;;15.90;99.90;;;;;;6180553;23;20017;-86
2021/08/28 06:22:12;;;;;;;12.18;7.82;;;15.90;99.90;;;;;;6181143;23;20015;-86
2021/08/28 06:24:37;;;;;;;16.77;8.15;;;15.80;99.90;;;;;;6181300;23;20020;-85
2021/08/28 06:27:03;;;;;;;16.65;8.35;;;15.90;99.90;;;;;;6180715;23;20328;-86
2021/08/28 06:29:29;;;;;;;16.63;7.90;;;15.90;99.90;;;;;;6180509;23;20339;-85
2021/08/28 06:31:55;;;;;;;12.60;7.18;;;15.90;99.90;;;;;;6180665;23;20045;-85
2021/08/28 06:34:20;;;;;;;13.30;7.10;;;15.90;99.90;;;;;;6181362;23;20019;-85
2021/08/28 06:36:46;;;;;;;15.43;7.70;;;15.90;99.90;;;;;;6180993;23;20055;-85
2021/08/28 06:39:12;;;;;;;12.05;7.20;;;15.90;99.90;;;;;;6180664;23;20104;-84
2021/08/28 06:41:37;;;;;;;15.02;7.35;;;16.00;99.90;;;;;;6182444;23;20039;-86
2021/08/28 06:44:03;;;;;;;14.18;7.32;;;15.90;99.90;;;;;;6182818;23;20424;-86
2021/08/28 06:46:30;;;;;;;14.02;7.43;;;15.90;99.90;;;;;;6182670;23;19993;-87
2021/08/28 06:48:56;;;;;;;12.55;7.25;;;15.90;99.90;;;;;;6182177;23;19997;-86
2021/08/28 06:51:22;;;;;;;12.85;8.20;;;15.90;99.90;;;;;;6182363;23;20001;-84
2021/08/28 06:53:49;;;;;;;12.68;7.97;;;15.90;99.90;;;;;;6182829;23;20044;-86
2021/08/28 06:56:19;;;;;;;13.07;8.10;;;15.90;99.90;;;;;;6183405;23;20005;-86
2021/08/28 06:58:44;;;;;;;13.65;7.80;;;15.90;99.90;;;;;;6183501;23;20012;-85
2021/08/28 07:01:10;;;;;;;11.60;7.45;;;15.90;99.90;;;;;;6179914;23;20013;-86
2021/08/28 07:03:36;;;;;;;13.55;7.43;;;15.90;99.90;;;;;;6180642;23;20015;-86
2021/08/28 07:06:02;;;;;;;13.60;7.18;;;15.90;99.90;;;;;;6180716;23;20455;-85
2021/08/28 07:08:28;;;;;;;13.15;7.35;;;16.00;99.90;;;;;;6182243;23;20455;-85
2021/08/28 07:10:54;;;;;;;13.45;7.90;;;16.00;99.90;;;;;;6181418;23;20021;-85
2021/08/28 07:13:21;;;;;;;14.45;7.20;;;16.00;99.90;;;;;;6182447;23;20084;-85
2021/08/28 07:15:47;;;;;;;14.00;7.43;;;16.00;99.90;;;;;;6182026;23;20009;-85
2021/08/28 07:18:14;;;;;;;14.70;8.15;;;15.90;99.90;;;;;;6182051;23;20059;-85
2021/08/28 07:20:40;;;;;;;14.18;8.15;;;16.00;99.90;;;;;;6180474;23;20112;-85
2021/08/28 07:23:06;;;;;;;13.20;8.38;;;16.00;99.90;;;;;;6181139;23;20104;-85
2021/08/28 07:25:37;;;;;;;12.15;7.57;;;16.10;99.90;;;;;;6180167;23;20012;-85
2021/08/28 07:28:10;;;;;;;13.85;7.03;;;16.10;99.90;;;;;;6183324;23;20002;-85
2021/08/28 07:30:36;;;;;;;13.80;7.22;;;16.10;99.90;;;;;;6182839;23;20005;-85
2021/08/28 07:33:02;;;;;;;11.55;7.13;;;16.20;99.90;;;;;;6183853;23;20439;-85
2021/08/28 07:35:30;;;;;;;14.40;7.68;;;16.20;99.90;;;;;;6182545;23;20089;-85
2021/08/28 07:37:56;;;;;;;13.07;7.78;;;16.20;99.90;;;;;;6182558;23;20440;-85
2021/08/28 07:40:23;;;;;;;12.40;7.32;;;16.20;99.90;;;;;;6181107;23;20013;-85
2021/08/28 07:42:54;;;;;;;11.82;7.30;;;16.30;99.90;;;;;;6182540;23;20032;-84
2021/08/28 07:45:20;;;;;;;12.93;7.22;;;16.30;99.90;;;;;;6183778;23;20025;-86
2021/08/28 07:47:46;;;;;;;15.13;7.43;;;16.30;99.90;;;;;;6181939;23;20005;-85
2021/08/28 07:50:12;;;;;;;13.90;7.53;;;16.40;99.90;;;;;;6185529;23;20075;-83
2021/08/28 07:52:40;;;;;;;12.65;7.80;;;16.40;99.90;;;;;;6184890;23;20036;-82
2021/08/28 07:55:07;;;;;;;14.45;7.55;;;16.40;99.90;;;;;;6185738;23;20024;-85
2021/08/28 07:57:33;;;;;;;15.00;8.02;;;16.40;99.90;;;;;;6188595;23;20016;-82
2021/08/28 07:59:59;;;;;;;11.88;7.95;;;16.40;99.90;;;;;;6186741;23;20009;-82
2021/08/28 08:02:24;;;;;;;12.00;6.95;;;16.40;99.90;;;;;;6184670;23;20012;-83
2021/08/28 08:04:50;;;;;;;13.50;7.55;;;16.40;99.90;;;;;;6183691;23;20403;-82
2021/08/28 08:07:15;;;;;;;14.07;7.78;;;16.40;99.90;;;;;;6183365;23;20052;-82
2021/08/28 08:09:41;;;;;;;11.73;6.68;;;16.50;99.90;;;;;;6185479;23;20002;-82
2021/08/28 08:12:07;;;;;;;12.13;7.43;;;16.50;99.90;;;;;;6182897;23;20001;-82
2021/08/28 08:14:33;;;;;;;10.27;6.75;;;16.60;99.90;;;;;;6184408;23;20024;-83
2021/08/28 08:16:59;;;;;;;12.93;6.57;;;16.60;99.90;;;;;;6183900;23;20060;-82
2021/08/28 08:19:24;;;;;;;12.35;6.82;;;16.60;99.90;;;;;;6183785;23;20387;-82
2021/08/28 08:21:50;;;;;;;9.43;6.55;;;16.60;99.90;;;;;;6183881;23;20405;-83
2021/08/28 08:24:16;;;;;;;12.95;6.72;;;16.60;99.90;;;;;;6182986;23;20012;-82
2021/08/28 08:26:41;;;;;;;11.65;6.60;;;16.60;99.90;;;;;;6185186;23;20066;-82
2021/08/28 08:29:07;;;;;;;11.13;6.72;;;16.60;99.90;;;;;;6184771;23;20099;-83
2021/08/28 08:31:33;;;;;;;12.60;6.43;;;16.60;99.90;;;;;;6188039;23;19997;-82
2021/08/28 08:33:58;;;;;;;11.27;6.03;;;16.70;99.90;;;;;;6187031;23;20009;-83
2021/08/28 08:36:24;;;;;;;12.60;6.47;;;16.70;99.90;;;;;;6188459;23;20001;-82
2021/08/28 08:38:50;;;;;;;13.75;6.82;;;16.70;99.90;;;;;;6185188;23;20016;-82
2021/08/28 08:41:17;;;;;;;13.95;7.38;;;16.70;99.90;;;;;;6184956;23;20498;-83
2021/08/28 08:43:43;;;;;;;10.82;6.35;;;16.80;99.90;;;;;;6188477;23;20459;-82
2021/08/28 08:46:09;;;;;;;11.25;6.70;;;16.80;99.90;;;;;;6190604;23;20029;-82
2021/08/28 08:48:36;;;;;;;12.23;6.85;;;16.80;99.90;;;;;;6191013;23;20031;-85
2021/08/28 08:51:03;;;;;;;11.52;5.75;;;16.90;99.90;;;;;;6190797;23;20005;-82
2021/08/28 08:53:30;;;;;;;13.18;6.20;;;16.90;99.90;;;;;;6188400;23;20087;-83
2021/08/28 08:55:57;;;;;;;11.90;6.63;;;17.00;99.90;;;;;;6186814;23;20005;-83
2021/08/28 08:58:23;;;;;;;9.60;5.72;;;17.00;99.90;;;;;;6188146;23;20428;-83
2021/08/28 09:00:49;;;;;;;12.27;6.88;;;17.10;99.90;;;;;;6184910;23;20128;-83
2021/08/28 09:03:15;;;;;;;10.23;5.55;;;17.10;99.90;;;;;;6187440;23;20075;-83
2021/08/28 09:05:41;;;;;;;12.20;6.22;;;17.00;99.90;;;;;;6185752;23;20071;-82
2021/08/28 09:08:08;;;;;;;10.68;5.72;;;17.00;99.90;;;;;;6187796;23;20028;-83
2021/08/28 09:10:34;;;;;;;10.32;6.03;;;17.00;99.90;;;;;;6187718;23;20017;-83
2021/08/28 09:13:16;;;;;;;11.65;6.35;;;17.00;99.90;;;;;;6186695;23;20005;-83
2021/08/28 09:15:48;;;;;;;11.65;6.75;;;16.90;99.90;;;;;;6187681;23;20009;-82
2021/08/28 09:18:14;;;;;;;9.70;6.20;;;16.80;99.90;;;;;;6196389;23;20447;-84
2021/08/28 09:20:40;;;;;;;9.65;5.82;;;16.80;99.90;;;;;;6186181;23;20036;-84
2021/08/28 09:23:08;;;;;;;11.82;5.88;;;16.80;99.90;;;;;;6213356;23;19997;-84
2021/08/28 09:25:36;;;;;;;12.30;6.13;;;16.70;99.90;;;;;;6185773;23;20516;-84
2021/08/28 09:28:01;;;;;;;9.55;6.45;;;16.70;99.90;;;;;;6214098;23;20415;-84
2021/08/28 09:30:34;;;;;;;10.63;5.55;;;16.60;99.90;;;;;;6186809;23;20001;-83
2021/08/28 09:33:03;;;;;;;10.18;5.63;;;16.60;99.90;;;;;;6214701;23;20001;-84
2021/08/28 09:35:31;;;;;;;9.30;5.93;;;16.50;99.90;;;;;;6213785;23;20458;-83
2021/08/28 09:38:05;;;;;;;10.57;6.30;;;16.60;99.90;;;;;;6189433;23;20010;-83
2021/08/28 09:40:34;;;;;;;10.20;6.28;;;16.50;99.90;;;;;;6214026;23;20220;-84
2021/08/28 09:43:03;;;;;;;11.45;7.03;;;16.50;99.90;;;;;;6212919;23;20005;-83
2021/08/28 09:45:29;;;;;;;9.75;5.80;;;16.50;99.90;;;;;;6187538;23;20005;-84
2021/08/28 09:47:56;;;;;;;12.32;5.85;;;16.50;99.90;;;;;;6213147;23;20004;-85
2021/08/28 09:50:30;;;;;;;9.02;5.43;;;16.50;99.90;;;;;;6213684;23;20001;-86
2021/08/28 09:53:01;;;;;;;9.40;5.65;;;16.50;99.90;;;;;;6213824;23;20482;-87
2021/08/28 09:55:29;;;;;;;8.90;5.15;;;16.50;99.90;;;;;;6186952;23;20292;-86
2021/08/28 09:57:55;;;;;;;11.55;5.93;;;16.50;99.90;;;;;;6214159;23;20000;-86
2021/08/28 10:00:21;;;;;;;11.07;6.07;;;16.50;99.90;;;;;;6184776;23;20005;-86
2021/08/28 10:02:56;;;;;;;12.15;6.75;;;16.50;99.90;;;;;;6214167;23;20001;-86
2021/08/28 10:05:24;;;;;;;11.70;6.07;;;16.50;99.90;;;;;;6211570;23;20016;-86
2021/08/28 10:07:51;;;;;;;10.38;6.07;;;16.60;99.90;;;;;;6186890;23;20028;-86
2021/08/28 10:10:18;;;;;;;8.75;5.65;;;16.50;99.90;;;;;;6212182;23;20568;-88
2021/08/28 10:12:45;;;;;;;7.00;4.65;;;16.60;99.90;;;;;;6187477;23;20004;-86
2021/08/28 10:15:11;;;;;;;7.88;5.30;;;16.60;99.90;;;;;;6187588;23;20015;-86
2021/08/28 10:17:39;;;;;;;8.52;4.88;;;16.60;99.90;;;;;;6214053;23;20515;-87
2021/08/28 10:20:06;;;;;;;10.48;5.78;;;16.60;99.90;;;;;;6186447;23;20016;-86
2021/08/28 10:22:34;;;;;;;8.88;5.05;;;16.60;99.90;;;;;;6187008;23;20376;-89
2021/08/28 10:25:07;;;;;;;7.30;4.50;;;16.60;99.90;;;;;;6186670;23;20066;-85
2021/08/28 10:27:33;;;;;;;9.07;4.90;;;16.70;99.90;;;;;;6186653;23;20427;-86
2021/08/28 10:29:59;;;;;;;9.52;5.25;;;16.80;99.90;;;;;;6185589;23;20163;-86
2021/08/28 10:32:25;;;;;;;9.45;6.47;;;16.80;99.90;;;;;;6212904;23;20024;-86
2021/08/28 10:34:51;;;;;;;10.38;6.78;;;16.90;99.90;;;;;;6211787;23;20431;-87
2021/08/28 10:37:18;;;;;;;8.68;5.93;;;16.90;99.90;;;;;;6186680;23;20059;-85
2021/08/28 10:39:47;;;;;;;7.97;4.90;;;17.00;99.90;;;;;;6186271;23;20043;-84
2021/08/28 10:42:13;;;;;;;;;;;17.20;99.90;;;;;;6213628;23;20108;-84
2021/08/28 10:44:39;;;;;;;5.72;3.90;;;17.20;99.90;;;;;;6186401;23;19986;-85
2021/08/28 10:47:19;;;;;;;5.35;3.70;;;17.30;99.90;;;;;;6211452;23;20127;-86
2021/08/28 10:49:50;;;;;;;5.75;3.47;;;17.30;99.90;;;;;;6185570;23;20076;-84
2021/08/28 10:52:18;;;;;;;5.75;3.70;;;17.40;99.90;;;;;;6212500;23;19997;-85
2021/08/28 10:54:51;;;;;;;6.22;3.42;;;17.40;99.90;;;;;;6186156;23;20004;-85
2021/08/28 10:57:21;;;;;;;4.35;2.83;;;17.40;99.90;;;;;;6186092;23;20000;-86
2021/08/28 11:00:10;;;;;;;5.18;3.28;;;17.30;99.90;;;;;;6185981;23;20450;-85
2021/08/28 11:02:50;;;;;;;4.68;2.97;;;17.20;99.90;;;;;;6186133;23;20063;-85
2021/08/28 11:05:17;;;;;;;4.60;3.00;;;17.20;99.90;;;;;;6212743;23;20011;-85
2021/08/28 11:07:43;;;;;;;4.38;3.30;;;17.20;99.90;;;;;;6186219;23;20059;-85
2021/08/28 11:10:20;;;;;;;5.60;3.60;;;17.30;99.90;;;;;;6184973;23;19997;-85
2021/08/28 11:13:02;;;;;;;6.65;4.07;;;17.30;99.90;;;;;;6211405;23;20348;-85
2021/08/28 11:15:28;;;;;;;6.15;3.38;;;17.40;99.90;;;;;;6186019;23;20066;-85
2021/08/28 11:17:55;;;;;;;4.43;3.38;;;17.50;99.90;;;;;;6211198;23;20084;-85
2021/08/28 11:20:35;;;;;;;4.95;3.83;;;17.60;99.90;;;;;;6185982;23;20008;-88
2021/08/28 11:23:17;;;;;;;6.38;3.38;;;17.80;99.90;;;;;;6187138;23;20008;-90
2021/08/28 11:25:46;;;;;;;4.70;3.40;;;17.90;99.90;;;;;;6185859;23;20411;-86
2021/08/28 11:28:13;;;;;;;5.15;3.13;;;17.90;99.90;;;;;;6185650;23;20401;-86
2021/08/28 11:30:44;;;;;;;5.68;3.30;;;17.90;99.90;;;;;;6211733;23;20067;-86
2021/08/28 11:33:20;;;;;;;5.43;3.05;;;17.80;99.90;;;;;;6212622;23;20386;-86
2021/08/28 11:35:54;;;;;;;5.50;3.25;;;17.80;99.90;;;;;;6185887;23;20087;-86
2021/08/28 11:38:23;;;;;;;5.72;3.40;;;17.70;99.90;;;;;;6185773;23;20005;-86
2021/08/28 11:41:01;;;;;;;6.75;3.60;;;17.60;99.90;;;;;;6209999;23;20016;-83
2021/08/28 11:43:34;;;;;;;5.20;3.58;;;17.50;99.90;;;;;;6186237;23;20081;-85
2021/08/28 11:46:09;;;;;;;6.47;4.20;;;17.50;99.90;;;;;;6186065;23;20009;-85
2021/08/28 11:48:37;;;;;;;4.57;3.15;;;17.60;99.90;;;;;;6186422;23;20432;-85
2021/08/28 11:51:12;;;;;;;6.05;3.80;;;17.60;99.90;;;;;;6185829;23;20015;-88
2021/08/28 11:53:38;;;;;;;5.28;3.28;;;17.60;99.90;;;;;;6186208;23;20396;-87
2021/08/28 11:56:06;;;;;;;4.70;2.95;;;17.70;99.90;;;;;;6185903;23;20012;-87
2021/08/28 11:59:10;;;;;;;4.60;3.00;;;17.70;99.90;;;;;;6213265;23;20011;-88
2021/08/28 12:01:41;;;;;;;6.45;3.45;;;17.80;99.90;;;;;;6105283;23;20001;-88
2021/08/28 12:04:13;;;;;;;4.95;2.90;;;17.90;99.90;;;;;;6188239;23;20346;-88
2021/08/28 12:06:40;;;;;;;6.78;3.83;;;17.90;99.90;;;;;;6187914;23;20005;-87
2021/08/28 12:09:09;;;;;;;4.97;3.20;;;18.00;99.90;;;;;;6186754;23;20151;-89
2021/08/28 12:11:37;;;;;;;4.68;2.92;;;18.00;99.90;;;;;;6187380;23;20005;-86
2021/08/28 12:14:04;;;;;;;5.18;2.80;;;18.20;99.90;;;;;;6214531;23;20004;-87
2021/08/28 12:16:35;;;;;;;4.40;2.70;;;18.20;99.90;;;;;;6187203;23;20005;-86
2021/08/28 12:19:03;;;;;;;4.70;2.95;;;18.20;99.90;;;;;;6213964;23;20088;-86
2021/08/28 12:21:32;;;;;;;3.88;2.53;;;18.30;99.90;;;;;;6212676;23;20008;-89
2021/08/28 12:24:22;;;;;;;4.30;2.63;;;18.30;99.90;;;;;;6187624;23;20000;-89
2021/08/28 12:26:52;;;;;;;4.20;2.53;;;18.30;99.90;;;;;;6214346;23;20290;-88
2021/08/28 12:29:27;;;;;;;3.95;2.38;;;18.40;99.90;;;;;;6187283;23;20027;-89
2021/08/28 12:31:58;;;;;;;5.18;2.80;;;18.40;99.90;;;;;;6187371;23;20262;-86
2021/08/28 12:34:25;;;;;;;5.18;2.83;;;18.40;99.90;;;;;;6187804;23;20009;-88
2021/08/28 12:36:52;;;;;;;3.75;2.20;;;18.50;99.90;;;;;;6214524;23;20005;-86
2021/08/28 12:39:18;;;;;;;5.45;2.53;;;18.50;99.90;;;;;;6212389;23;20083;-87
2021/08/28 12:41:45;;;;;;;3.42;2.00;;;18.60;99.90;;;;;;6188038;23;20014;-87